sensor_id;sensor_type;location;lat;lon;timestamp;pressure;altitude;pressure_sealevel;temperature;humidity
76156;BME280;64906;51.290;7.348;2024-02-21T00:01:39;99401.47;;;13.52;51.21
76156;BME280;64906;51.290;7.348;2024-02-21T00:04:04;99403.56;;;13.49;51.27
76156;BME280;64906;51.290;7.348;2024-02-21T00:06:30;99402.75;;;13.49;51.21
76156;BME280;64906;51.290;7.348;2024-02-21T00:08:56;99396.50;;;13.48;51.21
76156;BME280;64906;51.290;7.348;2024-02-21T00:11:21;99401.47;;;13.52;51.19
76156;BME280;64906;51.290;7.348;2024-02-21T00:13:47;99406.06;;;13.51;51.23
76156;BME280;64906;51.290;7.348;2024-02-21T00:16:12;99390.84;;;13.50;51.20
76156;BME280;64906;51.290;7.348;2024-02-21T00:18:38;99387.31;;;13.49;51.19
76156;BME280;64906;51.290;7.348;2024-02-21T00:21:04;99377.72;;;13.47;51.34
76156;BME280;64906;51.290;7.348;2024-02-21T00:23:29;99382.59;;;13.45;51.34
76156;BME280;64906;51.290;7.348;2024-02-21T00:25:54;99372.31;;;13.47;51.31
76156;BME280;64906;51.290;7.348;2024-02-21T00:28:19;99370.91;;;13.44;51.37
76156;BME280;64906;51.290;7.348;2024-02-21T00:30:46;99370.91;;;13.44;51.40
76156;BME280;64906;51.290;7.348;2024-02-21T00:33:13;99371.50;;;13.46;51.42
76156;BME280;64906;51.290;7.348;2024-02-21T00:35:38;99360.19;;;13.49;51.20
76156;BME280;64906;51.290;7.348;2024-02-21T00:38:03;99360.66;;;13.46;51.06
76156;BME280;64906;51.290;7.348;2024-02-21T00:40:29;99360.19;;;13.49;51.20
76156;BME280;64906;51.290;7.348;2024-02-21T00:42:54;99345.78;;;13.49;51.25
76156;BME280;64906;51.290;7.348;2024-02-21T00:45:20;99343.44;;;13.52;50.78
76156;BME280;64906;51.290;7.348;2024-02-21T00:47:45;99345.91;;;13.54;51.11
76156;BME280;64906;51.290;7.348;2024-02-21T00:50:11;99341.31;;;13.55;51.07
76156;BME280;64906;51.290;7.348;2024-02-21T00:52:36;99336.00;;;13.48;51.21
76156;BME280;64906;51.290;7.348;2024-02-21T00:55:01;99339.66;;;13.53;51.06
76156;BME280;64906;51.290;7.348;2024-02-21T00:57:27;99329.50;;;13.49;51.26
76156;BME280;64906;51.290;7.348;2024-02-21T00:59:52;99329.28;;;13.50;50.98
76156;BME280;64906;51.290;7.348;2024-02-21T01:02:17;99329.88;;;13.52;51.18
76156;BME280;64906;51.290;7.348;2024-02-21T01:04:42;99333.66;;;13.52;51.20
76156;BME280;64906;51.290;7.348;2024-02-21T01:07:08;99318.44;;;13.50;51.12
76156;BME280;64906;51.290;7.348;2024-02-21T01:09:33;99314.44;;;13.53;50.58
76156;BME280;64906;51.290;7.348;2024-02-21T01:11:58;99318.19;;;13.52;51.05
76156;BME280;64906;51.290;7.348;2024-02-21T01:14:23;99317.38;;;13.52;51.20
76156;BME280;64906;51.290;7.348;2024-02-21T01:16:49;99315.47;;;13.52;51.16
76156;BME280;64906;51.290;7.348;2024-02-21T01:19:14;99310.28;;;13.50;51.21
76156;BME280;64906;51.290;7.348;2024-02-21T01:21:40;99302.41;;;13.49;51.14
76156;BME280;64906;51.290;7.348;2024-02-21T01:24:05;99302.75;;;13.52;51.05
76156;BME280;64906;51.290;7.348;2024-02-21T01:26:30;99303.34;;;13.55;51.05
76156;BME280;64906;51.290;7.348;2024-02-21T01:28:56;99289.44;;;13.51;51.02
76156;BME280;64906;51.290;7.348;2024-02-21T01:31:21;99294.38;;;13.54;51.08
76156;BME280;64906;51.290;7.348;2024-02-21T01:33:46;99284.84;;;13.52;51.26
76156;BME280;64906;51.290;7.348;2024-02-21T01:36:11;99292.63;;;13.48;51.07
76156;BME280;64906;51.290;7.348;2024-02-21T01:38:37;99286.59;;;13.46;51.16
76156;BME280;64906;51.290;7.348;2024-02-21T01:41:02;99274.47;;;13.48;51.10
76156;BME280;64906;51.290;7.348;2024-02-21T01:43:27;99261.25;;;13.52;51.15
76156;BME280;64906;51.290;7.348;2024-02-21T01:45:55;99266.66;;;13.52;51.08
76156;BME280;64906;51.290;7.348;2024-02-21T01:48:24;99257.13;;;13.49;51.07
76156;BME280;64906;51.290;7.348;2024-02-21T01:50:50;99264.44;;;13.49;51.14
76156;BME280;64906;51.290;7.348;2024-02-21T01:53:18;99260.66;;;13.50;51.11
76156;BME280;64906;51.290;7.348;2024-02-21T01:55:45;99248.16;;;13.49;51.03
76156;BME280;64906;51.290;7.348;2024-02-21T01:58:13;99245.19;;;13.50;50.97
76156;BME280;64906;51.290;7.348;2024-02-21T02:00:41;99233.19;;;13.46;51.27
76156;BME280;64906;51.290;7.348;2024-02-21T02:03:08;99237.53;;;13.47;51.16
76156;BME280;64906;51.290;7.348;2024-02-21T02:05:35;99235.44;;;13.49;51.12
76156;BME280;64906;51.290;7.348;2024-02-21T02:08:01;99229.41;;;13.47;51.24
76156;BME280;64906;51.290;7.348;2024-02-21T02:10:26;99235.06;;;13.46;51.10
76156;BME280;64906;51.290;7.348;2024-02-21T02:12:52;99229.66;;;13.46;51.17
76156;BME280;64906;51.290;7.348;2024-02-21T02:15:17;99230.13;;;13.43;51.38
76156;BME280;64906;51.290;7.348;2024-02-21T02:17:43;99240.50;;;13.46;51.29
76156;BME280;64906;51.290;7.348;2024-02-21T02:20:08;99233.78;;;13.48;51.20
76156;BME280;64906;51.290;7.348;2024-02-21T02:22:36;99242.13;;;13.47;51.28
76156;BME280;64906;51.290;7.348;2024-02-21T02:25:03;99228.38;;;13.48;51.16
76156;BME280;64906;51.290;7.348;2024-02-21T02:27:28;99215.00;;;13.47;51.12
76156;BME280;64906;51.290;7.348;2024-02-21T02:29:54;99204.75;;;13.49;51.16
76156;BME280;64906;51.290;7.348;2024-02-21T02:32:19;99200.88;;;13.45;51.25
76156;BME280;64906;51.290;7.348;2024-02-21T02:34:44;99201.13;;;13.43;51.19
76156;BME280;64906;51.290;7.348;2024-02-21T02:37:09;99197.81;;;13.41;51.31
76156;BME280;64906;51.290;7.348;2024-02-21T02:39:35;99198.06;;;13.40;51.35
76156;BME280;64906;51.290;7.348;2024-02-21T02:42:01;99194.28;;;13.41;51.34
76156;BME280;64906;51.290;7.348;2024-02-21T02:44:27;99194.28;;;13.41;51.46
76156;BME280;64906;51.290;7.348;2024-02-21T02:46:52;99182.38;;;13.42;51.17
76156;BME280;64906;51.290;7.348;2024-02-21T02:49:17;99184.50;;;13.40;51.40
76156;BME280;64906;51.290;7.348;2024-02-21T02:51:43;99172.59;;;13.41;51.25
76156;BME280;64906;51.290;7.348;2024-02-21T02:54:09;99179.31;;;13.38;51.39
76156;BME280;64906;51.290;7.348;2024-02-21T02:56:34;99171.75;;;13.40;51.16
76156;BME280;64906;51.290;7.348;2024-02-21T02:59:00;99174.25;;;13.42;51.24
76156;BME280;64906;51.290;7.348;2024-02-21T03:01:25;99170.47;;;13.43;51.23
76156;BME280;64906;51.290;7.348;2024-02-21T03:03:51;99170.47;;;13.43;51.19
76156;BME280;64906;51.290;7.348;2024-02-21T03:06:16;99178.84;;;13.41;51.40
76156;BME280;64906;51.290;7.348;2024-02-21T03:08:41;99168.34;;;13.45;51.15
76156;BME280;64906;51.290;7.348;2024-02-21T03:11:07;99163.97;;;13.44;51.20
76156;BME280;64906;51.290;7.348;2024-02-21T03:13:33;99161.50;;;13.42;51.24
76156;BME280;64906;51.290;7.348;2024-02-21T03:15:58;99166.13;;;13.42;51.60
76156;BME280;64906;51.290;7.348;2024-02-21T03:18:24;99170.81;;;13.46;51.15
76156;BME280;64906;51.290;7.348;2024-02-21T03:20:49;99159.63;;;13.43;51.18
76156;BME280;64906;51.290;7.348;2024-02-21T03:23:14;99153.34;;;13.42;51.09
76156;BME280;64906;51.290;7.348;2024-02-21T03:25:40;99154.19;;;13.43;51.09
76156;BME280;64906;51.290;7.348;2024-02-21T03:28:05;99147.94;;;13.42;51.18
76156;BME280;64906;51.290;7.348;2024-02-21T03:30:31;99138.75;;;13.43;51.47
76156;BME280;64906;51.290;7.348;2024-02-21T03:32:56;99127.56;;;13.40;51.26
76156;BME280;64906;51.290;7.348;2024-02-21T03:35:21;99115.63;;;13.41;51.38
76156;BME280;64906;51.290;7.348;2024-02-21T03:37:46;99115.03;;;13.39;51.25
76156;BME280;64906;51.290;7.348;2024-02-21T03:40:12;99120.47;;;13.39;51.29
76156;BME280;64906;51.290;7.348;2024-02-21T03:42:37;99120.47;;;13.39;51.36
76156;BME280;64906;51.290;7.348;2024-02-21T03:45:04;99113.66;;;13.36;51.41
76156;BME280;64906;51.290;7.348;2024-02-21T03:47:29;99115.88;;;13.39;51.25
76156;BME280;64906;51.290;7.348;2024-02-21T03:49:54;99101.72;;;13.37;51.29
76156;BME280;64906;51.290;7.348;2024-02-21T03:52:20;99105.88;;;13.40;51.27
76156;BME280;64906;51.290;7.348;2024-02-21T03:54:45;99096.66;;;13.41;51.25
76156;BME280;64906;51.290;7.348;2024-02-21T03:57:10;99105.88;;;13.40;51.29
76156;BME280;64906;51.290;7.348;2024-02-21T03:59:36;99101.03;;;13.42;51.25
76156;BME280;64906;51.290;7.348;2024-02-21T04:02:01;99101.50;;;13.39;51.37
76156;BME280;64906;51.290;7.348;2024-02-21T04:04:29;99099.59;;;13.39;51.21
76156;BME280;64906;51.290;7.348;2024-02-21T04:06:54;99103.63;;;13.37;51.28
76156;BME280;64906;51.290;7.348;2024-02-21T04:09:19;99115.28;;;13.37;51.27
76156;BME280;64906;51.290;7.348;2024-02-21T04:11:45;99095.75;;;13.35;51.37
76156;BME280;64906;51.290;7.348;2024-02-21T04:14:10;99109.31;;;13.35;51.39
76156;BME280;64906;51.290;7.348;2024-02-21T04:16:36;99109.88;;;13.37;51.30
76156;BME280;64906;51.290;7.348;2024-02-21T04:19:02;99126.72;;;13.39;51.39
76156;BME280;64906;51.290;7.348;2024-02-21T04:21:27;99121.31;;;13.39;51.30
76156;BME280;64906;51.290;7.348;2024-02-21T04:23:52;99126.13;;;13.37;51.34
76156;BME280;64906;51.290;7.348;2024-02-21T04:26:17;99125.88;;;13.39;50.86
76156;BME280;64906;51.290;7.348;2024-02-21T04:28:45;99122.94;;;13.40;51.32
76156;BME280;64906;51.290;7.348;2024-02-21T04:31:10;99130.28;;;13.40;51.25
76156;BME280;64906;51.290;7.348;2024-02-21T04:33:35;99128.84;;;13.37;51.26
76156;BME280;64906;51.290;7.348;2024-02-21T04:36:01;99136.19;;;13.37;51.21
76156;BME280;64906;51.290;7.348;2024-02-21T04:38:27;99131.56;;;13.37;51.38
76156;BME280;64906;51.290;7.348;2024-02-21T04:40:54;99133.47;;;13.37;51.36
76156;BME280;64906;51.290;7.348;2024-02-21T04:43:20;99130.50;;;13.38;51.27
76156;BME280;64906;51.290;7.348;2024-02-21T04:45:45;99120.94;;;13.36;51.36
76156;BME280;64906;51.290;7.348;2024-02-21T04:48:10;99119.91;;;13.37;51.27
76156;BME280;64906;51.290;7.348;2024-02-21T04:50:35;99131.31;;;13.39;51.24
76156;BME280;64906;51.290;7.348;2024-02-21T04:53:01;99133.22;;;13.38;51.47
76156;BME280;64906;51.290;7.348;2024-02-21T04:55:26;99121.53;;;13.38;51.34
76156;BME280;64906;51.290;7.348;2024-02-21T04:57:51;99135.09;;;13.38;51.42
76156;BME280;64906;51.290;7.348;2024-02-21T05:00:17;99137.56;;;13.39;51.27
76156;BME280;64906;51.290;7.348;2024-02-21T05:02:42;99119.44;;;13.40;51.15
76156;BME280;64906;51.290;7.348;2024-02-21T05:05:07;99133.22;;;13.38;51.16
76156;BME280;64906;51.290;7.348;2024-02-21T05:07:34;99120.94;;;13.36;51.23
76156;BME280;64906;51.290;7.348;2024-02-21T05:10:00;99118.84;;;13.38;51.34
76156;BME280;64906;51.290;7.348;2024-02-21T05:12:25;99117.50;;;13.40;50.94
76156;BME280;64906;51.290;7.348;2024-02-21T05:14:51;99110.81;;;13.43;51.09
76156;BME280;64906;51.290;7.348;2024-02-21T05:17:16;99117.88;;;13.44;51.12
76156;BME280;64906;51.290;7.348;2024-02-21T05:19:42;99122.72;;;13.42;51.11
76156;BME280;64906;51.290;7.348;2024-02-21T05:22:07;99112.69;;;13.42;51.24
76156;BME280;64906;51.290;7.348;2024-02-21T05:24:32;99110.81;;;13.43;51.25
76156;BME280;64906;51.290;7.348;2024-02-21T05:26:57;99112.34;;;13.39;51.15
76156;BME280;64906;51.290;7.348;2024-02-21T05:29:23;99105.88;;;13.40;51.27
76156;BME280;64906;51.290;7.348;2024-02-21T05:34:17;99103.41;;;13.38;51.25
76156;BME280;64906;51.290;7.348;2024-02-21T05:36:42;99097.13;;;13.38;51.28
76156;BME280;64906;51.290;7.348;2024-02-21T05:39:07;99095.25;;;13.38;51.23
76156;BME280;64906;51.290;7.348;2024-02-21T05:41:33;99094.19;;;13.39;51.21
76156;BME280;64906;51.290;7.348;2024-02-21T05:43:58;99095.25;;;13.38;51.21
76156;BME280;64906;51.290;7.348;2024-02-21T05:46:23;99089.59;;;13.40;50.96
76156;BME280;64906;51.290;7.348;2024-02-21T05:48:49;99090.19;;;13.42;51.05
76156;BME280;64906;51.290;7.348;2024-02-21T05:51:14;99085.31;;;13.44;51.12
76156;BME280;64906;51.290;7.348;2024-02-21T05:53:40;99084.97;;;13.40;51.23
76156;BME280;64906;51.290;7.348;2024-02-21T05:56:10;99086.06;;;13.39;51.17
76156;BME280;64906;51.290;7.348;2024-02-21T05:58:36;99090.88;;;13.37;51.31
76156;BME280;64906;51.290;7.348;2024-02-21T06:01:01;99081.94;;;13.37;51.26
76156;BME280;64906;51.290;7.348;2024-02-21T06:03:28;99083.59;;;13.38;51.38
76156;BME280;64906;51.290;7.348;2024-02-21T06:05:54;99075.44;;;13.38;51.30
76156;BME280;64906;51.290;7.348;2024-02-21T06:08:19;99071.34;;;13.35;51.35
76156;BME280;64906;51.290;7.348;2024-02-21T06:10:45;99071.56;;;13.34;51.40
76156;BME280;64906;51.290;7.348;2024-02-21T06:13:10;99066.72;;;13.36;51.18
76156;BME280;64906;51.290;7.348;2024-02-21T06:15:36;99068.94;;;13.39;51.14
76156;BME280;64906;51.290;7.348;2024-02-21T06:18:01;99061.66;;;13.39;51.11
76156;BME280;64906;51.290;7.348;2024-02-21T06:20:26;99055.28;;;13.34;51.31
76156;BME280;64906;51.290;7.348;2024-02-21T06:22:51;99053.16;;;13.36;51.29
76156;BME280;64906;51.290;7.348;2024-02-21T06:25:17;99052.13;;;13.37;51.17
76156;BME280;64906;51.290;7.348;2024-02-21T06:27:43;99039.59;;;13.36;51.19
76156;BME280;64906;51.290;7.348;2024-02-21T06:30:09;99043.25;;;13.41;51.06
76156;BME280;64906;51.290;7.348;2024-02-21T06:32:34;99034.28;;;13.41;51.09
76156;BME280;64906;51.290;7.348;2024-02-21T06:34:59;99024.19;;;13.36;51.28
76156;BME280;64906;51.290;7.348;2024-02-21T06:37:27;99023.69;;;13.39;51.08
76156;BME280;64906;51.290;7.348;2024-02-21T06:39:52;99023.69;;;13.39;51.19
76156;BME280;64906;51.290;7.348;2024-02-21T06:42:17;99016.38;;;13.40;51.19
76156;BME280;64906;51.290;7.348;2024-02-21T06:44:44;99013.31;;;13.36;51.18
76156;BME280;64906;51.290;7.348;2024-02-21T06:47:09;99003.56;;;13.35;51.15
76156;BME280;64906;51.290;7.348;2024-02-21T06:49:34;98997.06;;;13.36;51.30
76156;BME280;64906;51.290;7.348;2024-02-21T06:52:00;98996.56;;;13.39;51.22
76156;BME280;64906;51.290;7.348;2024-02-21T06:54:25;98999.03;;;13.41;51.10
76156;BME280;64906;51.290;7.348;2024-02-21T06:56:50;99003.19;;;13.43;51.02
76156;BME280;64906;51.290;7.348;2024-02-21T06:59:15;98995.03;;;13.43;51.00
76156;BME280;64906;51.290;7.348;2024-02-21T07:01:45;98999.13;;;13.46;50.99
76156;BME280;64906;51.290;7.348;2024-02-21T07:04:11;98996.69;;;13.44;51.09
76156;BME280;64906;51.290;7.348;2024-02-21T07:06:36;98995.84;;;13.44;50.89
76156;BME280;64906;51.290;7.348;2024-02-21T07:09:02;99007.28;;;13.46;50.84
76156;BME280;64906;51.290;7.348;2024-02-21T07:11:27;98995.94;;;13.49;50.76
76156;BME280;64906;51.290;7.348;2024-02-21T07:13:52;98998.78;;;13.42;50.97
76156;BME280;64906;51.290;7.348;2024-02-21T07:16:17;98999.03;;;13.41;51.08
76156;BME280;64906;51.290;7.348;2024-02-21T07:18:43;99003.19;;;13.43;51.15
76156;BME280;64906;51.290;7.348;2024-02-21T07:21:08;99000.22;;;13.45;50.95
76156;BME280;64906;51.290;7.348;2024-02-21T07:23:33;98998.22;;;13.40;51.10
76156;BME280;64906;51.290;7.348;2024-02-21T07:25:59;98998.56;;;13.44;51.06
76156;BME280;64906;51.290;7.348;2024-02-21T07:28:24;98993.97;;;13.44;50.86
76156;BME280;64906;51.290;7.348;2024-02-21T07:30:49;98992.19;;;13.50;50.91
76156;BME280;64906;51.290;7.348;2024-02-21T07:33:14;98988.88;;;13.48;50.92
76156;BME280;64906;51.290;7.348;2024-02-21T07:35:40;98993.56;;;13.52;50.83
76156;BME280;64906;51.290;7.348;2024-02-21T07:38:07;98995.78;;;13.56;50.60
76156;BME280;64906;51.290;7.348;2024-02-21T07:40:33;98987.06;;;13.53;50.65
76156;BME280;64906;51.290;7.348;2024-02-21T07:42:58;98977.41;;;13.58;50.66
76156;BME280;64906;51.290;7.348;2024-02-21T07:45:24;98976.56;;;13.57;50.60
76156;BME280;64906;51.290;7.348;2024-02-21T07:47:50;98975.28;;;13.60;50.33
76156;BME280;64906;51.290;7.348;2024-02-21T07:50:16;98976.56;;;13.57;50.55
76156;BME280;64906;51.290;7.348;2024-02-21T07:52:41;98977.75;;;13.61;50.52
76156;BME280;64906;51.290;7.348;2024-02-21T07:55:07;98968.78;;;13.61;50.58
76156;BME280;64906;51.290;7.348;2024-02-21T07:57:32;98968.19;;;13.59;50.63
76156;BME280;64906;51.290;7.348;2024-02-21T07:59:58;98971.00;;;13.64;50.34
76156;BME280;64906;51.290;7.348;2024-02-21T08:02:23;98965.25;;;13.60;50.52
76156;BME280;64906;51.290;7.348;2024-02-21T08:04:48;98956.13;;;13.66;50.42
76156;BME280;64906;51.290;7.348;2024-02-21T08:07:14;98965.00;;;13.62;50.47
76156;BME280;64906;51.290;7.348;2024-02-21T08:09:40;98946.03;;;13.62;50.59
76156;BME280;64906;51.290;7.348;2024-02-21T08:12:05;98946.47;;;13.59;50.59
76156;BME280;64906;51.290;7.348;2024-02-21T08:14:31;98943.06;;;13.63;50.46
76156;BME280;64906;51.290;7.348;2024-02-21T08:16:56;98949.28;;;13.64;50.44
76156;BME280;64906;51.290;7.348;2024-02-21T08:19:21;98934.09;;;13.63;50.35
76156;BME280;64906;51.290;7.348;2024-02-21T08:21:47;98933.50;;;13.61;50.52
76156;BME280;64906;51.290;7.348;2024-02-21T08:24:16;98930.78;;;13.61;50.53
76156;BME280;64906;51.290;7.348;2024-02-21T08:26:42;98923.00;;;13.64;50.58
76156;BME280;64906;51.290;7.348;2024-02-21T08:29:07;98923.00;;;13.64;50.41
76156;BME280;64906;51.290;7.348;2024-02-21T08:31:33;98930.31;;;13.64;50.52
76156;BME280;64906;51.290;7.348;2024-02-21T08:34:00;98925.72;;;13.64;50.34
76156;BME280;64906;51.290;7.348;2024-02-21T08:36:33;98913.56;;;13.67;50.31
76156;BME280;64906;51.290;7.348;2024-02-21T08:38:59;98900.88;;;13.72;50.22
76156;BME280;64906;51.290;7.348;2024-02-21T08:41:25;98901.38;;;13.69;50.26
76156;BME280;64906;51.290;7.348;2024-02-21T08:43:51;98900.66;;;13.74;50.31
76156;BME280;64906;51.290;7.348;2024-02-21T08:46:17;98894.16;;;13.75;50.23
76156;BME280;64906;51.290;7.348;2024-02-21T08:48:43;98896.03;;;13.74;50.18
76156;BME280;64906;51.290;7.348;2024-02-21T08:51:11;98890.63;;;13.74;50.22
76156;BME280;64906;51.290;7.348;2024-02-21T08:53:36;98885.19;;;13.74;50.39
76156;BME280;64906;51.290;7.348;2024-02-21T08:56:03;98887.31;;;13.72;50.08
76156;BME280;64906;51.290;7.348;2024-02-21T08:58:29;98881.66;;;13.74;50.29
76156;BME280;64906;51.290;7.348;2024-02-21T09:00:54;98883.56;;;13.73;50.10
76156;BME280;64906;51.290;7.348;2024-02-21T09:03:19;98886.28;;;13.73;50.13
76156;BME280;64906;51.290;7.348;2024-02-21T09:05:46;98897.69;;;13.75;50.07
76156;BME280;64906;51.290;7.348;2024-02-21T09:08:11;98891.75;;;13.78;50.22
76156;BME280;64906;51.290;7.348;2024-02-21T09:10:37;98880.19;;;13.83;49.94
76156;BME280;64906;51.290;7.348;2024-02-21T09:13:02;98869.09;;;13.84;49.76
76156;BME280;64906;51.290;7.348;2024-02-21T09:15:28;98869.41;;;13.88;49.92
76156;BME280;64906;51.290;7.348;2024-02-21T09:17:54;98856.66;;;13.88;49.76
76156;BME280;64906;51.290;7.348;2024-02-21T09:20:19;98862.06;;;13.88;49.85
76156;BME280;64906;51.290;7.348;2024-02-21T09:22:44;98848.50;;;13.88;49.81
76156;BME280;64906;51.290;7.348;2024-02-21T09:25:10;98857.22;;;13.90;49.91
76156;BME280;64906;51.290;7.348;2024-02-21T09:27:37;98857.47;;;13.89;49.92
76156;BME280;64906;51.290;7.348;2024-02-21T09:30:03;98852.31;;;13.87;49.88
76156;BME280;64906;51.290;7.348;2024-02-21T09:32:30;98840.03;;;13.85;49.84
76156;BME280;64906;51.290;7.348;2024-02-21T09:34:55;98844.16;;;13.87;50.02
76156;BME280;64906;51.290;7.348;2024-02-21T09:37:21;98832.22;;;13.88;49.77
76156;BME280;64906;51.290;7.348;2024-02-21T09:39:46;98846.03;;;13.87;49.91
76156;BME280;64906;51.290;7.348;2024-02-21T09:42:14;98834.94;;;13.88;49.72
76156;BME280;64906;51.290;7.348;2024-02-21T09:44:42;98827.13;;;13.92;49.74
76156;BME280;64906;51.290;7.348;2024-02-21T09:47:10;98830.59;;;13.87;49.78
76156;BME280;64906;51.290;7.348;2024-02-21T09:49:40;98816.78;;;13.89;49.77
76156;BME280;64906;51.290;7.348;2024-02-21T09:52:06;98810.09;;;13.96;49.67
76156;BME280;64906;51.290;7.348;2024-02-21T09:54:34;98816.59;;;13.95;49.39
76156;BME280;64906;51.290;7.348;2024-02-21T09:57:00;98814.97;;;13.94;49.69
76156;BME280;64906;51.290;7.348;2024-02-21T09:59:27;98808.47;;;13.95;49.52
76156;BME280;64906;51.290;7.348;2024-02-21T10:01:53;98816.09;;;13.98;49.72
76156;BME280;64906;51.290;7.348;2024-02-21T10:04:20;98824.91;;;14.05;49.33
76156;BME280;64906;51.290;7.348;2024-02-21T10:06:45;98823.28;;;14.04;49.33
76156;BME280;64906;51.290;7.348;2024-02-21T10:09:21;98827.34;;;14.07;49.37
76156;BME280;64906;51.290;7.348;2024-02-21T10:11:48;98831.44;;;14.09;49.26
76156;BME280;64906;51.290;7.348;2024-02-21T10:14:13;98832.53;;;14.08;49.13
76156;BME280;64906;51.290;7.348;2024-02-21T10:16:40;98825.47;;;14.07;49.30
76156;BME280;64906;51.290;7.348;2024-02-21T10:19:05;98826.28;;;14.08;49.23
76156;BME280;64906;51.290;7.348;2024-02-21T10:21:31;98822.50;;;14.09;49.38
76156;BME280;64906;51.290;7.348;2024-02-21T10:23:56;98826.69;;;14.16;49.09
76156;BME280;64906;51.290;7.348;2024-02-21T10:26:22;98814.50;;;14.19;49.07
76156;BME280;64906;51.290;7.348;2024-02-21T10:28:47;98804.03;;;14.27;48.77
76156;BME280;64906;51.290;7.348;2024-02-21T10:31:27;98801.91;;;14.29;48.72
76156;BME280;64906;51.290;7.348;2024-02-21T10:33:59;98803.13;;;14.38;48.48
76156;BME280;64906;51.290;7.348;2024-02-21T10:36:28;98806.63;;;14.39;48.25
76156;BME280;64906;51.290;7.348;2024-02-21T10:38:53;98799.56;;;14.38;48.56
76156;BME280;64906;51.290;7.348;2024-02-21T10:41:20;98796.88;;;14.38;48.56
76156;BME280;64906;51.290;7.348;2024-02-21T10:43:53;98795.53;;;14.40;48.46
76156;BME280;64906;51.290;7.348;2024-02-21T10:46:20;98801.03;;;14.45;48.29
76156;BME280;64906;51.290;7.348;2024-02-21T10:48:47;98793.75;;;14.51;48.21
76156;BME280;64906;51.290;7.348;2024-02-21T10:51:17;98797.38;;;14.56;48.10
76156;BME280;64906;51.290;7.348;2024-02-21T10:54:06;98797.38;;;14.56;48.10
76156;BME280;64906;51.290;7.348;2024-02-21T10:56:38;98786.50;;;14.56;48.08
76156;BME280;64906;51.290;7.348;2024-02-21T10:59:06;98777.84;;;14.59;48.09
76156;BME280;64906;51.290;7.348;2024-02-21T11:01:32;98775.19;;;14.64;47.91
76156;BME280;64906;51.290;7.348;2024-02-21T11:04:08;98772.06;;;14.77;47.36
76156;BME280;64906;51.290;7.348;2024-02-21T11:06:35;98763.97;;;14.82;47.44
76156;BME280;64906;51.290;7.348;2024-02-21T11:09:02;98753.09;;;14.82;47.50
76156;BME280;64906;51.290;7.348;2024-02-21T11:11:28;98749.31;;;14.83;47.49
76156;BME280;64906;51.290;7.348;2024-02-21T11:14:04;98747.72;;;14.88;47.41
76156;BME280;64906;51.290;7.348;2024-02-21T11:16:35;98731.97;;;14.90;47.22
76156;BME280;64906;51.290;7.348;2024-02-21T11:19:26;98729.19;;;14.84;47.42
76156;BME280;64906;51.290;7.348;2024-02-21T11:21:52;98719.19;;;14.90;47.38
76156;BME280;64906;51.290;7.348;2024-02-21T11:24:32;98702.72;;;15.02;47.06
76156;BME280;64906;51.290;7.348;2024-02-21T11:27:12;98690.22;;;15.01;47.00
76156;BME280;64906;51.290;7.348;2024-02-21T11:29:44;98668.47;;;15.01;47.03
76156;BME280;64906;51.290;7.348;2024-02-21T11:32:10;98657.03;;;14.99;47.14
76156;BME280;64906;51.290;7.348;2024-02-21T11:34:37;98664.94;;;15.00;47.16
76156;BME280;64906;51.290;7.348;2024-02-21T11:37:13;98647.81;;;15.05;47.06
76156;BME280;64906;51.290;7.348;2024-02-21T11:39:40;98635.34;;;15.04;47.11
76156;BME280;64906;51.290;7.348;2024-02-21T11:42:07;98627.78;;;15.11;46.40
76156;BME280;64906;51.290;7.348;2024-02-21T11:44:36;98620.69;;;15.10;46.89
76156;BME280;64906;51.290;7.348;2024-02-21T11:47:03;98610.09;;;15.13;46.83
76156;BME280;64906;51.290;7.348;2024-02-21T11:49:29;98611.19;;;15.12;46.69
76156;BME280;64906;51.290;7.348;2024-02-21T11:51:59;98598.38;;;15.08;46.91
76156;BME280;64906;51.290;7.348;2024-02-21T11:54:26;98601.34;;;15.06;46.92
76156;BME280;64906;51.290;7.348;2024-02-21T11:56:51;98585.88;;;15.07;46.96
76156;BME280;64906;51.290;7.348;2024-02-21T11:59:16;98585.34;;;15.10;47.01
76156;BME280;64906;51.290;7.348;2024-02-21T12:01:42;98576.34;;;15.09;46.95
76156;BME280;64906;51.290;7.348;2024-02-21T12:04:07;98569.63;;;15.17;46.80
76156;BME280;64906;51.290;7.348;2024-02-21T12:06:33;98563.94;;;15.18;46.73
76156;BME280;64906;51.290;7.348;2024-02-21T12:08:58;98549.50;;;15.18;46.76
76156;BME280;64906;51.290;7.348;2024-02-21T12:11:24;98554.41;;;15.21;46.54
76156;BME280;64906;51.290;7.348;2024-02-21T12:14:02;98546.50;;;15.19;46.62
76156;BME280;64906;51.290;7.348;2024-02-21T12:16:32;98533.44;;;15.16;46.80
76156;BME280;64906;51.290;7.348;2024-02-21T12:18:58;98527.19;;;15.16;46.85
76156;BME280;64906;51.290;7.348;2024-02-21T12:21:29;98516.03;;;15.12;46.91
76156;BME280;64906;51.290;7.348;2024-02-21T12:23:55;98502.72;;;15.11;46.90
76156;BME280;64906;51.290;7.348;2024-02-21T12:26:21;98504.06;;;15.08;47.01
76156;BME280;64906;51.290;7.348;2024-02-21T12:28:47;98483.94;;;15.09;47.03
76156;BME280;64906;51.290;7.348;2024-02-21T12:31:13;98474.16;;;15.08;46.97
76156;BME280;64906;51.290;7.348;2024-02-21T12:33:38;98476.31;;;15.06;47.11
76156;BME280;64906;51.290;7.348;2024-02-21T12:36:04;98452.09;;;15.05;47.14
76156;BME280;64906;51.290;7.348;2024-02-21T12:38:29;98446.13;;;15.08;47.01
76156;BME280;64906;51.290;7.348;2024-02-21T12:40:55;98427.38;;;15.06;47.08
76156;BME280;64906;51.290;7.348;2024-02-21T12:43:23;98415.97;;;15.09;47.07
76156;BME280;64906;51.290;7.348;2024-02-21T12:45:48;98424.41;;;15.13;46.95
76156;BME280;64906;51.290;7.348;2024-02-21T12:48:14;98411.09;;;15.16;46.78
76156;BME280;64906;51.290;7.348;2024-02-21T12:50:40;98403.22;;;15.15;46.90
76156;BME280;64906;51.290;7.348;2024-02-21T12:53:12;98386.94;;;15.20;46.78
76156;BME280;64906;51.290;7.348;2024-02-21T12:55:38;98363.56;;;15.24;46.86
76156;BME280;64906;51.290;7.348;2024-02-21T12:58:03;98386.38;;;15.23;46.64